Time;durP1;ratioP1;P1;durP2;ratioP2;P2;SDS_P1;SDS_P2;PMS_P1;PMS_P2;Temp;Humidity;BMP_temperature;BMP_pressure;BME280_temperature;BME280_humidity;BME280_pressure;Samples;Min_cycle;Max_cycle;Signal;HPM_P1;HPM_P2
2022/08/17 00:00:10;;;;;;;3.20;2.90;;;;;;;;;;5118849;28;20205;-64
2022/08/17 00:02:59;;;;;;;3.03;2.83;;;;;;;;;;5118425;28;20290;-64
2022/08/17 00:05:30;;;;;;;3.27;2.77;;;;;;;;;;5118723;28;20263;-64
2022/08/17 00:07:58;;;;;;;3.20;2.90;;;;;;;;;;5106608;28;20634;-63
2022/08/17 00:10:26;;;;;;;2.90;2.70;;;;;;;;;;5113712;28;20209;-64
2022/08/17 00:12:56;;;;;;;3.93;3.37;;;;;;;;;;5118514;28;20206;-64
2022/08/17 00:15:25;;;;;;;4.50;2.63;;;;;;;;;;5118585;28;20201;-64
2022/08/17 00:17:53;;;;;;;3.00;2.80;;;;;;;;;;5118140;28;20241;-64
2022/08/17 00:20:21;;;;;;;3.10;2.90;;;;;;;;;;5118336;28;20293;-64
2022/08/17 00:23:07;;;;;;;3.90;2.80;;;;;;;;;;5118364;28;20210;-64
2022/08/17 00:25:35;;;;;;;3.63;3.20;;;;;;;;;;5105932;28;20224;-64
2022/08/17 00:28:03;;;;;;;3.17;2.97;;;;;;;;;;5118261;28;20243;-64
2022/08/17 00:30:34;;;;;;;4.80;3.60;;;;;;;;;;5118087;28;20652;-63
2022/08/17 00:33:22;;;;;;;3.43;3.10;;;;;;;;;;5117653;28;20259;-61
2022/08/17 00:35:50;;;;;;;3.30;3.00;;;;;;;;;;5118203;28;20649;-62
2022/08/17 00:38:19;;;;;;;3.30;3.10;;;;;;;;;;5117015;28;20231;-63
2022/08/17 00:40:48;;;;;;;5.67;3.20;;;;;;;;;;5116342;28;20201;-64
2022/08/17 00:43:19;;;;;;;3.13;2.83;;;;;;;;;;5116467;28;20226;-64
2022/08/17 00:45:49;;;;;;;3.40;3.10;;;;;;;;;;5116000;28;20311;-63
2022/08/17 00:48:17;;;;;;;3.40;3.00;;;;;;;;;;5116149;28;20236;-64
2022/08/17 00:50:58;;;;;;;3.50;3.10;;;;;;;;;;5116320;28;20254;-63
2022/08/17 00:53:29;;;;;;;3.50;3.20;;;;;;;;;;5117421;28;20262;-63
2022/08/17 00:55:57;;;;;;;4.83;3.40;;;;;;;;;;5117780;28;20233;-64
2022/08/17 00:58:25;;;;;;;3.40;3.13;;;;;;;;;;5117934;28;20241;-64
2022/08/17 01:01:05;;;;;;;3.23;3.03;;;;;;;;;;5118260;28;20208;-64
2022/08/17 01:03:33;;;;;;;3.53;3.10;;;;;;;;;;5117536;28;20309;-64
2022/08/17 01:06:03;;;;;;;3.80;3.50;;;;;;;;;;5120012;28;20256;-64
2022/08/17 01:08:32;;;;;;;4.27;3.33;;;;;;;;;;5107138;28;20704;-64
2022/08/17 01:11:01;;;;;;;4.17;3.77;;;;;;;;;;5101347;28;20618;-64
2022/08/17 01:13:31;;;;;;;4.10;3.50;;;;;;;;;;5101647;28;20230;-64
2022/08/17 01:16:11;;;;;;;3.60;3.20;;;;;;;;;;5101634;28;20209;-64
2022/08/17 01:18:40;;;;;;;3.80;3.50;;;;;;;;;;5101283;28;20233;-64
2022/08/17 01:21:11;;;;;;;4.20;3.90;;;;;;;;;;5101286;28;20238;-64
2022/08/17 01:23:41;;;;;;;4.03;3.63;;;;;;;;;;5109585;28;20253;-64
2022/08/17 01:26:09;;;;;;;3.73;3.43;;;;;;;;;;5121440;28;20606;-64
2022/08/17 01:28:38;;;;;;;4.20;3.60;;;;;;;;;;5121763;28;20207;-63
2022/08/17 01:31:23;;;;;;;4.33;3.13;;;;;;;;;;5121759;28;20245;-64
2022/08/17 01:33:51;;;;;;;4.50;3.17;;;;;;;;;;5121458;28;20232;-64
2022/08/17 01:36:19;;;;;;;6.07;2.97;;;;;;;;;;5121580;28;20275;-64
2022/08/17 01:38:48;;;;;;;3.70;3.40;;;;;;;;;;5121615;28;20206;-64
2022/08/17 01:41:16;;;;;;;3.37;3.13;;;;;;;;;;5121409;28;20262;-64
2022/08/17 01:43:46;;;;;;;3.70;3.23;;;;;;;;;;5121168;28;20742;-63
2022/08/17 01:46:16;;;;;;;3.00;2.80;;;;;;;;;;5121068;28;20223;-64
2022/08/17 01:48:46;;;;;;;3.37;3.13;;;;;;;;;;5120912;28;20325;-64
2022/08/17 01:51:15;;;;;;;3.93;3.43;;;;;;;;;;5121105;28;20241;-64
2022/08/17 01:53:46;;;;;;;3.77;3.03;;;;;;;;;;5121267;28;20256;-64
2022/08/17 01:56:16;;;;;;;2.97;2.77;;;;;;;;;;5120844;28;20215;-64
2022/08/17 01:58:45;;;;;;;6.87;3.20;;;;;;;;;;5121188;27;20204;-64
2022/08/17 02:01:13;;;;;;;3.63;3.37;;;;;;;;;;5121227;28;20212;-64
2022/08/17 02:03:42;;;;;;;3.30;3.00;;;;;;;;;;5120754;28;20272;-64
2022/08/17 02:06:28;;;;;;;3.40;3.10;;;;;;;;;;5120985;28;20223;-64
2022/08/17 02:08:56;;;;;;;3.37;2.80;;;;;;;;;;5103054;28;20711;-64
2022/08/17 02:11:32;;;;;;;3.60;3.30;;;;;;;;;;5100206;28;20563;-64
2022/08/17 02:14:00;;;;;;;3.70;3.40;;;;;;;;;;5100244;28;20225;-64
2022/08/17 02:16:30;;;;;;;4.30;3.00;;;;;;;;;;5099427;28;20201;-64
2022/08/17 02:19:06;;;;;;;2.77;2.63;;;;;;;;;;5099964;28;20212;-64
2022/08/17 02:21:35;;;;;;;3.70;2.97;;;;;;;;;;5100600;28;20212;-64
2022/08/17 02:24:03;;;;;;;3.17;2.93;;;;;;;;;;5112012;28;20257;-64
2022/08/17 02:26:32;;;;;;;4.70;3.17;;;;;;;;;;5120191;28;20231;-64
2022/08/17 02:29:00;;;;;;;3.63;3.33;;;;;;;;;;5120625;28;20242;-64
2022/08/17 02:31:28;;;;;;;3.37;3.17;;;;;;;;;;5120354;27;20634;-64
2022/08/17 02:33:56;;;;;;;2.93;2.70;;;;;;;;;;5120214;28;20256;-64
2022/08/17 02:36:31;;;;;;;3.43;3.13;;;;;;;;;;5120426;28;20200;-64
2022/08/17 02:39:00;;;;;;;3.10;2.90;;;;;;;;;;5120292;28;20210;-64
2022/08/17 02:41:28;;;;;;;3.20;3.00;;;;;;;;;;5120286;28;20207;-63
2022/08/17 02:43:57;;;;;;;4.80;3.20;;;;;;;;;;5120017;28;20284;-64
2022/08/17 02:46:25;;;;;;;3.27;3.07;;;;;;;;;;5120057;27;20250;-64
2022/08/17 02:48:53;;;;;;;3.73;3.40;;;;;;;;;;5119714;28;20696;-64
2022/08/17 02:51:21;;;;;;;3.70;3.40;;;;;;;;;;5119719;28;20234;-64
2022/08/17 02:53:49;;;;;;;3.47;3.23;;;;;;;;;;5119748;28;20257;-64
2022/08/17 02:56:17;;;;;;;3.40;3.20;;;;;;;;;;5119638;28;20605;-64
2022/08/17 02:58:45;;;;;;;3.70;3.40;;;;;;;;;;5119967;28;20235;-64
2022/08/17 03:01:15;;;;;;;3.53;3.23;;;;;;;;;;5119876;28;20229;-64
2022/08/17 03:03:43;;;;;;;4.43;3.07;;;;;;;;;;5119209;28;20232;-64
2022/08/17 03:06:11;;;;;;;3.87;3.57;;;;;;;;;;5119587;27;20668;-64
2022/08/17 03:08:39;;;;;;;3.63;3.33;;;;;;;;;;5103806;28;20280;-64
2022/08/17 03:11:07;;;;;;;4.80;4.03;;;;;;;;;;5099282;28;20235;-64
2022/08/17 03:13:35;;;;;;;3.93;3.17;;;;;;;;;;5098951;28;20231;-64
2022/08/17 03:16:03;;;;;;;3.43;3.13;;;;;;;;;;5099095;28;20329;-63
2022/08/17 03:18:33;;;;;;;5.57;3.20;;;;;;;;;;5098926;28;20207;-64
2022/08/17 03:21:03;;;;;;;6.00;3.00;;;;;;;;;;5099070;28;20211;-64
2022/08/17 03:23:32;;;;;;;3.40;3.10;;;;;;;;;;5106097;28;20231;-64
2022/08/17 03:26:00;;;;;;;3.37;3.07;;;;;;;;;;5119185;28;20664;-63
2022/08/17 03:28:28;;;;;;;3.43;3.13;;;;;;;;;;5118639;28;20768;-62
2022/08/17 03:30:56;;;;;;;4.90;3.07;;;;;;;;;;5119446;28;20243;-62
2022/08/17 03:33:24;;;;;;;3.40;3.17;;;;;;;;;;5118959;28;20239;-62
2022/08/17 03:35:54;;;;;;;3.43;3.13;;;;;;;;;;5119334;28;20215;-62
2022/08/17 03:38:22;;;;;;;5.60;3.80;;;;;;;;;;5118922;28;20636;-62
2022/08/17 03:40:50;;;;;;;4.27;3.13;;;;;;;;;;5118871;28;20243;-62
2022/08/17 03:43:26;;;;;;;3.67;3.37;;;;;;;;;;5119102;28;20233;-63
2022/08/17 03:57:17;;;;;;;3.43;2.70;;;;;;;;;;5118807;28;20230;-62
2022/08/17 03:59:46;;;;;;;3.20;2.97;;;;;;;;;;5118911;28;20296;-62
2022/08/17 04:02:17;;;;;;;7.63;3.90;;;;;;;;;;5118573;28;20212;-62
2022/08/17 04:04:45;;;;;;;5.10;3.37;;;;;;;;;;5118802;28;20228;-62
2022/08/17 04:07:14;;;;;;;2.97;2.77;;;;;;;;;;5114917;28;20218;-62
2022/08/17 04:09:43;;;;;;;4.53;3.47;;;;;;;;;;5098376;28;20236;-62
2022/08/17 04:12:14;;;;;;;5.10;3.40;;;;;;;;;;5097174;28;20258;-62
2022/08/17 04:14:42;;;;;;;5.40;3.17;;;;;;;;;;5104949;28;20234;-62
2022/08/17 04:17:22;;;;;;;3.27;2.93;;;;;;;;;;5117680;28;20200;-62
2022/08/17 04:19:50;;;;;;;3.47;3.17;;;;;;;;;;5118633;28;20212;-62
2022/08/17 04:22:19;;;;;;;3.47;3.13;;;;;;;;;;5118457;28;20228;-62
2022/08/17 04:25:00;;;;;;;4.27;3.67;;;;;;;;;;5105433;28;20282;-62
2022/08/17 04:27:28;;;;;;;3.80;3.47;;;;;;;;;;5097572;28;20710;-63
2022/08/17 04:29:57;;;;;;;3.47;3.17;;;;;;;;;;5097584;28;20648;-62
2022/08/17 04:32:25;;;;;;;6.27;3.10;;;;;;;;;;5097842;28;20336;-62
2022/08/17 04:35:17;;;;;;;3.60;3.30;;;;;;;;;;5097701;28;20301;-62
2022/08/17 04:37:46;;;;;;;7.77;4.70;;;;;;;;;;5097470;28;20239;-62
2022/08/17 04:43:01;;;;;;;3.57;3.20;;;;;;;;;;5101460;28;20234;-62
2022/08/17 04:45:29;;;;;;;13.37;4.40;;;;;;;;;;5100119;28;20205;-63
2022/08/17 04:47:59;;;;;;;7.60;3.87;;;;;;;;;;5099540;28;20229;-64
2022/08/17 04:50:27;;;;;;;5.57;4.10;;;;;;;;;;5099975;28;20601;-64
2022/08/17 04:52:56;;;;;;;5.90;3.97;;;;;;;;;;5099762;28;20257;-64
2022/08/17 04:55:25;;;;;;;4.77;4.17;;;;;;;;;;5099782;28;20660;-64
2022/08/17 04:57:53;;;;;;;6.57;3.80;;;;;;;;;;5107307;28;20203;-63
2022/08/17 05:00:21;;;;;;;5.53;3.87;;;;;;;;;;5122023;27;20200;-64
2022/08/17 05:02:49;;;;;;;8.07;6.20;;;;;;;;;;5122036;28;20241;-64
2022/08/17 05:05:18;;;;;;;6.10;4.60;;;;;;;;;;5122574;28;20208;-64
2022/08/17 05:07:47;;;;;;;5.33;4.80;;;;;;;;;;5113534;28;20230;-64
2022/08/17 05:10:17;;;;;;;4.37;3.97;;;;;;;;;;5101622;28;20238;-64
2022/08/17 05:12:45;;;;;;;4.87;4.03;;;;;;;;;;5101702;28;20238;-63
2022/08/17 05:15:14;;;;;;;4.27;3.87;;;;;;;;;;5101375;28;20208;-64
2022/08/17 05:17:42;;;;;;;4.20;3.80;;;;;;;;;;5101031;28;20204;-64
2022/08/17 05:20:11;;;;;;;4.57;3.67;;;;;;;;;;5101259;28;20296;-64
2022/08/17 05:22:48;;;;;;;4.80;4.00;;;;;;;;;;5101446;28;20243;-63
2022/08/17 05:25:20;;;;;;;4.10;3.77;;;;;;;;;;5121132;28;20215;-63
2022/08/17 05:27:52;;;;;;;5.80;4.10;;;;;;;;;;5121516;28;20599;-63
2022/08/17 05:30:20;;;;;;;4.50;4.10;;;;;;;;;;5121745;28;20254;-63
2022/08/17 05:32:52;;;;;;;6.37;4.00;;;;;;;;;;5121384;28;20238;-63
2022/08/17 05:35:21;;;;;;;6.37;4.43;;;;;;;;;;5121653;28;20290;-63
2022/08/17 05:37:49;;;;;;;6.23;4.03;;;;;;;;;;5121317;28;20563;-63
2022/08/17 05:40:20;;;;;;;4.47;4.03;;;;;;;;;;5120778;28;20522;-63
2022/08/17 05:42:48;;;;;;;6.23;4.10;;;;;;;;;;5118555;27;20207;-63
2022/08/17 05:45:17;;;;;;;5.77;3.87;;;;;;;;;;5121538;28;20204;-63
2022/08/17 05:48:06;;;;;;;4.57;4.10;;;;;;;;;;5120935;28;20231;-63
2022/08/17 05:50:41;;;;;;;5.03;4.53;;;;;;;;;;5121465;28;20241;-63
2022/08/17 05:53:13;;;;;;;4.93;3.70;;;;;;;;;;5121147;28;20260;-62
2022/08/17 05:55:45;;;;;;;5.53;4.40;;;;;;;;;;5121100;28;20220;-63
2022/08/17 05:58:19;;;;;;;4.87;4.37;;;;;;;;;;5120966;28;20235;-61
2022/08/17 06:00:50;;;;;;;6.33;4.67;;;;;;;;;;5120428;28;20207;-61
2022/08/17 06:03:25;;;;;;;5.77;4.57;;;;;;;;;;5119487;28;20226;-63
2022/08/17 06:06:00;;;;;;;7.33;4.90;;;;;;;;;;5118689;28;20653;-61
2022/08/17 06:08:33;;;;;;;4.60;4.13;;;;;;;;;;5116910;28;20223;-63
2022/08/17 06:11:08;;;;;;;5.17;4.67;;;;;;;;;;5121007;27;20207;-63
2022/08/17 06:13:44;;;;;;;7.43;4.37;;;;;;;;;;5120879;28;20226;-61
2022/08/17 06:16:14;;;;;;;7.10;4.50;;;;;;;;;;5120562;28;20257;-63
2022/08/17 06:19:04;;;;;;;4.93;4.43;;;;;;;;;;5120414;28;20583;-63
2022/08/17 06:21:34;;;;;;;6.03;4.70;;;;;;;;;;5120431;28;20649;-63
2022/08/17 06:24:05;;;;;;;6.00;5.00;;;;;;;;;;5111969;28;20260;-63
2022/08/17 06:26:37;;;;;;;5.33;4.03;;;;;;;;;;5099859;28;20251;-63
2022/08/17 06:29:15;;;;;;;5.20;4.70;;;;;;;;;;5099918;28;20738;-63
2022/08/17 06:31:45;;;;;;;8.00;4.77;;;;;;;;;;5126832;27;20200;-63
2022/08/17 06:34:13;;;;;;;5.00;4.43;;;;;;;;;;5128654;27;20313;-69
2022/08/17 06:36:48;;;;;;;7.10;4.43;;;;;;;;;;5125237;27;20199;-64
2022/08/17 06:39:21;;;;;;;5.43;4.00;;;;;;;;;;5130826;27;20641;-63
2022/08/17 06:41:56;;;;;;;5.30;4.40;;;;;;;;;;5130360;27;20287;-63
2022/08/17 06:44:28;;;;;;;4.53;4.13;;;;;;;;;;5125053;27;20723;-63
2022/08/17 06:47:21;;;;;;;7.17;4.20;;;;;;;;;;5127000;27;20228;-63
2022/08/17 06:50:00;;;;;;;4.13;3.77;;;;;;;;;;5125211;27;20238;-64
2022/08/17 06:52:33;;;;;;;4.40;3.73;;;;;;;;;;5130776;27;20199;-63
2022/08/17 06:55:26;;;;;;;5.97;4.07;;;;;;;;;;5129466;27;20206;-64
2022/08/17 06:57:58;;;;;;;4.93;4.53;;;;;;;;;;5127529;27;20626;-63
2022/08/17 07:00:27;;;;;;;8.87;4.60;;;;;;;;;;5123955;27;20232;-63
2022/08/17 07:02:59;;;;;;;6.53;4.70;;;;;;;;;;5101274;28;20225;-63
2022/08/17 07:05:31;;;;;;;6.40;4.30;;;;;;;;;;5106183;28;20246;-60
2022/08/17 07:08:01;;;;;;;5.60;3.67;;;;;;;;;;5109585;28;20210;-60
2022/08/17 07:10:31;;;;;;;4.40;4.00;;;;;;;;;;5107028;28;20283;-62
2022/08/17 07:13:12;;;;;;;4.63;4.00;;;;;;;;;;5130630;27;20542;-60
2022/08/17 07:15:42;;;;;;;8.23;4.60;;;;;;;;;;5128127;27;20207;-64
2022/08/17 07:18:10;;;;;;;4.87;4.20;;;;;;;;;;5110934;27;20241;-64
2022/08/17 07:20:41;;;;;;;4.67;4.27;;;;;;;;;;5098662;28;20208;-64
2022/08/17 07:23:13;;;;;;;5.80;4.77;;;;;;;;;;5110499;28;20288;-62
2022/08/17 07:25:41;;;;;;;8.43;4.50;;;;;;;;;;5111087;28;20210;-62
2022/08/17 07:28:11;;;;;;;6.00;4.77;;;;;;;;;;5112581;28;20687;-64
2022/08/17 07:30:43;;;;;;;5.40;4.70;;;;;;;;;;5120337;27;20218;-64
2022/08/17 07:33:18;;;;;;;4.83;4.47;;;;;;;;;;5120822;27;20221;-62
2022/08/17 07:35:48;;;;;;;5.23;4.73;;;;;;;;;;5120541;27;20199;-64
2022/08/17 07:38:17;;;;;;;5.07;4.33;;;;;;;;;;5124890;27;20198;-64
2022/08/17 07:41:00;;;;;;;4.60;4.20;;;;;;;;;;5123465;27;21262;-62
2022/08/17 07:43:32;;;;;;;4.80;4.27;;;;;;;;;;5124835;27;20304;-61
2022/08/17 07:48:49;;;;;;;5.70;4.47;;;;;;;;;;5117183;28;20206;-62
2022/08/17 07:51:19;;;;;;;5.60;3.97;;;;;;;;;;5109541;27;20259;-62
2022/08/17 07:53:49;;;;;;;4.47;3.77;;;;;;;;;;5121218;27;20249;-62
2022/08/17 07:56:41;;;;;;;8.40;3.90;;;;;;;;;;5123784;27;20200;-62
2022/08/17 07:59:12;;;;;;;5.30;4.80;;;;;;;;;;5094725;27;20231;-61
2022/08/17 08:01:41;;;;;;;4.90;4.33;;;;;;;;;;5116765;28;20204;-62
2022/08/17 08:04:26;;;;;;;4.30;3.87;;;;;;;;;;5117913;27;20700;-62
2022/08/17 08:07:23;;;;;;;6.83;4.37;;;;;;;;;;5111698;28;20731;-62
2022/08/17 08:10:01;;;;;;;6.60;4.47;;;;;;;;;;5106442;28;20264;-62
2022/08/17 08:12:33;;;;;;;5.20;4.27;;;;;;;;;;5116090;27;20196;-62
2022/08/17 08:15:08;;;;;;;4.93;4.27;;;;;;;;;;5115627;27;20220;-62
2022/08/17 08:17:45;;;;;;;7.60;4.20;;;;;;;;;;5116866;28;20201;-62
2022/08/17 08:20:13;;;;;;;4.63;3.77;;;;;;;;;;5116932;28;20228;-63
2022/08/17 08:23:06;;;;;;;7.20;4.60;;;;;;;;;;5117024;28;20567;-63
2022/08/17 08:25:41;;;;;;;4.60;4.20;;;;;;;;;;5101136;28;20207;-62
2022/08/17 08:28:16;;;;;;;5.50;4.10;;;;;;;;;;5104327;28;20222;-62
2022/08/17 08:30:47;;;;;;;8.80;3.83;;;;;;;;;;5113071;27;20249;-61
2022/08/17 08:33:26;;;;;;;5.43;4.30;;;;;;;;;;5120917;27;20254;-61
2022/08/17 08:35:56;;;;;;;4.10;3.80;;;;;;;;;;5119986;28;20634;-61
2022/08/17 08:38:29;;;;;;;5.93;4.47;;;;;;;;;;5122199;28;20569;-59
2022/08/17 08:41:05;;;;;;;6.87;4.40;;;;;;;;;;5124952;28;20230;-60
2022/08/17 08:43:37;;;;;;;3.90;3.50;;;;;;;;;;5127550;27;20557;-59
2022/08/17 08:46:09;;;;;;;5.63;3.83;;;;;;;;;;5125280;28;20197;-60
2022/08/17 08:48:52;;;;;;;7.10;4.63;;;;;;;;;;5121964;28;20233;-60
2022/08/17 08:51:31;;;;;;;3.87;3.57;;;;;;;;;;5125992;28;20237;-60
2022/08/17 08:54:03;;;;;;;5.03;4.30;;;;;;;;;;5117477;28;20223;-60
2022/08/17 08:56:36;;;;;;;5.40;3.90;;;;;;;;;;5113458;28;20203;-60
2022/08/17 08:59:09;;;;;;;4.73;4.13;;;;;;;;;;5117406;28;20682;-60
2022/08/17 09:01:41;;;;;;;5.97;3.90;;;;;;;;;;5117153;28;20596;-60
2022/08/17 09:04:17;;;;;;;6.00;3.67;;;;;;;;;;5117698;28;20243;-60
2022/08/17 09:06:57;;;;;;;5.17;3.67;;;;;;;;;;5117099;28;20740;-60
2022/08/17 09:09:28;;;;;;;4.50;3.90;;;;;;;;;;5105652;28;20204;-61
2022/08/17 09:12:01;;;;;;;4.67;3.93;;;;;;;;;;5116717;28;20701;-61
2022/08/17 09:14:36;;;;;;;4.47;3.87;;;;;;;;;;5116764;28;20277;-61
2022/08/17 09:17:17;;;;;;;5.53;3.80;;;;;;;;;;5116119;28;20204;-61
2022/08/17 09:19:48;;;;;;;4.07;3.63;;;;;;;;;;5119444;28;20259;-61
2022/08/17 09:22:22;;;;;;;4.63;4.23;;;;;;;;;;5124837;28;20672;-61
2022/08/17 09:24:55;;;;;;;4.67;4.27;;;;;;;;;;5111669;27;21009;-61
2022/08/17 09:27:27;;;;;;;3.93;3.63;;;;;;;;;;5122436;27;20720;-61
2022/08/17 09:30:01;;;;;;;4.07;3.70;;;;;;;;;;5114937;27;20256;-61
2022/08/17 09:32:33;;;;;;;5.43;4.00;;;;;;;;;;5112040;27;20204;-61
2022/08/17 09:35:04;;;;;;;5.63;3.60;;;;;;;;;;5111940;27;20583;-61
2022/08/17 09:37:35;;;;;;;5.37;4.03;;;;;;;;;;5111706;28;20195;-61
2022/08/17 09:40:10;;;;;;;4.53;4.10;;;;;;;;;;5111313;28;20197;-62
2022/08/17 09:42:42;;;;;;;5.43;3.67;;;;;;;;;;5109541;28;20203;-61
2022/08/17 09:45:19;;;;;;;4.00;3.60;;;;;;;;;;5109558;28;20651;-61
2022/08/17 09:47:51;;;;;;;4.23;3.83;;;;;;;;;;5109354;28;20717;-61
2022/08/17 09:50:23;;;;;;;5.23;4.33;;;;;;;;;;5110076;27;20229;-61
2022/08/17 09:53:13;;;;;;;5.93;3.97;;;;;;;;;;5108395;28;20313;-61
2022/08/17 09:55:57;;;;;;;4.37;3.90;;;;;;;;;;5106857;28;20203;-61
2022/08/17 09:58:30;;;;;;;5.77;3.60;;;;;;;;;;5107663;28;20234;-61
2022/08/17 10:01:01;;;;;;;5.77;3.70;;;;;;;;;;5115178;27;20191;-61
2022/08/17 10:03:39;;;;;;;5.07;3.73;;;;;;;;;;5110798;28;20219;-61
2022/08/17 10:06:13;;;;;;;5.23;3.50;;;;;;;;;;5109676;28;20238;-61
2022/08/17 10:08:44;;;;;;;3.70;3.30;;;;;;;;;;5107288;28;20221;-62
2022/08/17 10:11:19;;;;;;;4.87;3.90;;;;;;;;;;5109065;28;20730;-61
2022/08/17 10:14:05;;;;;;;4.77;3.80;;;;;;;;;;5109735;28;20253;-61
2022/08/17 10:16:56;;;;;;;5.23;3.97;;;;;;;;;;5121795;27;20804;-61
2022/08/17 10:19:29;;;;;;;7.60;4.00;;;;;;;;;;5124050;27;20188;-61
2022/08/17 10:27:58;;;;;;;5.83;4.20;;;;;;;;;;5117907;28;20209;-66
2022/08/17 10:30:27;;;;;;;4.53;3.30;;;;;;;;;;5120599;27;20282;-66
2022/08/17 10:32:58;;;;;;;5.27;4.07;;;;;;;;;;5118440;28;20228;-66
2022/08/17 10:35:32;;;;;;;4.10;3.70;;;;;;;;;;5118638;28;20653;-60
2022/08/17 10:38:08;;;;;;;5.10;4.17;;;;;;;;;;5115135;28;20543;-62
2022/08/17 10:40:38;;;;;;;4.43;3.77;;;;;;;;;;5118166;28;20728;-61
2022/08/17 10:43:18;;;;;;;4.73;4.10;;;;;;;;;;5117677;28;20258;-62
2022/08/17 10:45:48;;;;;;;5.47;4.10;;;;;;;;;;5118643;28;20609;-63
2022/08/17 10:48:37;;;;;;;6.03;4.00;;;;;;;;;;5111698;28;20215;-62
2022/08/17 10:51:08;;;;;;;7.30;4.25;;;;;;;;;;5110497;28;20277;-62
2022/08/17 10:54:05;;;;;;;5.13;4.50;;;;;;;;;;5119727;28;20259;-62
2022/08/17 10:56:51;;;;;;;5.70;4.28;;;;;;;;;;5111976;27;20241;-62
2022/08/17 10:59:38;;;;;;;5.13;3.90;;;;;;;;;;5106567;28;20230;-62
2022/08/17 11:02:17;;;;;;;4.43;4.13;;;;;;;;;;5105443;28;20234;-63
2022/08/17 11:04:51;;;;;;;5.95;4.15;;;;;;;;;;5119706;28;20231;-63
2022/08/17 11:07:29;;;;;;;4.57;3.92;;;;;;;;;;5119385;28;20238;-63
2022/08/17 11:10:16;;;;;;;4.90;4.40;;;;;;;;;;5102121;28;20284;-63
2022/08/17 11:12:47;;;;;;;4.23;3.83;;;;;;;;;;5115702;28;20755;-63
2022/08/17 11:15:24;;;;;;;5.80;3.90;;;;;;;;;;5116467;28;20209;-63
2022/08/17 11:18:07;;;;;;;6.82;4.22;;;;;;;;;;5116590;28;20207;-63
2022/08/17 11:20:53;;;;;;;5.13;4.25;;;;;;;;;;5119425;28;20226;-62
2022/08/17 11:23:38;;;;;;;6.07;4.47;;;;;;;;;;5115696;28;20266;-63
2022/08/17 11:26:24;;;;;;;11.98;6.47;;;;;;;;;;5116912;28;20238;-62
2022/08/17 11:28:57;;;;;;;8.20;6.15;;;;;;;;;;5115197;28;20677;-62
2022/08/17 11:31:28;;;;;;;6.13;5.35;;;;;;;;;;5114716;28;20279;-63
2022/08/17 11:34:08;;;;;;;5.10;4.63;;;;;;;;;;5112582;28;20227;-63
2022/08/17 11:36:54;;;;;;;5.47;4.27;;;;;;;;;;5118063;28;20563;-63
2022/08/17 11:39:30;;;;;;;8.70;4.22;;;;;;;;;;5108450;28;20209;-62
2022/08/17 11:42:03;;;;;;;6.70;4.28;;;;;;;;;;5113105;28;20208;-63
2022/08/17 11:44:40;;;;;;;7.93;4.15;;;;;;;;;;5113424;28;20229;-63
2022/08/17 11:52:55;;;;;;;5.15;4.18;;;;;;;;;;5110175;28;20600;-63
2022/08/17 11:55:41;;;;;;;4.97;4.43;;;;;;;;;;5113949;28;20234;-63
2022/08/17 11:58:26;;;;;;;4.90;4.05;;;;;;;;;;5117698;28;20298;-63
2022/08/17 12:00:59;;;;;;;6.57;4.18;;;;;;;;;;5113759;28;20241;-63
2022/08/17 12:03:52;;;;;;;7.65;4.32;;;;;;;;;;5103872;28;20233;-62
2022/08/17 12:06:29;;;;;;;5.60;4.57;;;;;;;;;;5110151;28;20239;-63
2022/08/17 12:09:01;;;;;;;4.90;4.50;;;;;;;;;;5118251;28;20252;-63
2022/08/17 12:11:33;;;;;;;6.80;4.40;;;;;;;;;;5108789;28;20225;-62
2022/08/17 12:14:25;;;;;;;10.13;5.43;;;;;;;;;;5115058;28;20242;-63
2022/08/17 12:17:15;;;;;;;7.13;4.07;;;;;;;;;;5107650;28;20206;-63
2022/08/17 12:20:12;;;;;;;6.32;4.47;;;;;;;;;;5109715;28;20211;-62
2022/08/17 12:22:44;;;;;;;6.43;4.10;;;;;;;;;;5111310;28;20209;-62
2022/08/17 12:25:15;;;;;;;7.70;4.80;;;;;;;;;;5115713;28;20235;-62
2022/08/17 12:27:45;;;;;;;6.63;4.17;;;;;;;;;;5110562;28;20205;-63
2022/08/17 12:30:33;;;;;;;6.35;4.18;;;;;;;;;;5111121;28;20201;-62
2022/08/17 12:33:03;;;;;;;6.30;4.38;;;;;;;;;;5113343;28;20264;-62
2022/08/17 12:35:37;;;;;;;6.72;4.90;;;;;;;;;;5113767;28;20202;-62
2022/08/17 12:38:07;;;;;;;5.47;4.53;;;;;;;;;;5110609;28;20207;-63
2022/08/17 12:40:56;;;;;;;7.87;4.10;;;;;;;;;;5117796;28;20207;-62
2022/08/17 12:43:26;;;;;;;6.03;4.57;;;;;;;;;;5118240;28;20242;-62
2022/08/17 12:45:56;;;;;;;8.27;4.30;;;;;;;;;;5114960;28;20206;-62
2022/08/17 12:48:27;;;;;;;7.03;4.40;;;;;;;;;;5105903;28;20239;-63
2022/08/17 12:50:59;;;;;;;8.87;4.83;;;;;;;;;;5106048;28;20290;-62
2022/08/17 12:53:28;;;;;;;8.33;4.60;;;;;;;;;;5109793;28;20256;-63
2022/08/17 12:55:57;;;;;;;5.35;4.72;;;;;;;;;;5117646;28;20707;-62
2022/08/17 12:58:27;;;;;;;5.83;4.20;;;;;;;;;;5118082;28;20290;-63
2022/08/17 13:00:58;;;;;;;5.70;4.43;;;;;;;;;;5110041;28;20240;-63
2022/08/17 13:03:30;;;;;;;10.30;4.38;;;;;;;;;;5107183;28;20221;-62
2022/08/17 13:06:05;;;;;;;7.93;4.57;;;;;;;;;;5117199;28;20224;-62
2022/08/17 13:08:35;;;;;;;9.07;4.65;;;;;;;;;;5113361;28;20263;-62
2022/08/17 13:11:07;;;;;;;11.25;4.72;;;;;;;;;;5113782;28;20231;-62
2022/08/17 13:13:35;;;;;;;7.68;4.10;;;;;;;;;;5121523;27;20638;-61
2022/08/17 13:16:05;;;;;;;7.72;4.18;;;;;;;;;;5108871;28;20236;-62
2022/08/17 13:18:39;;;;;;;5.22;3.67;;;;;;;;;;5118607;28;20636;-62
2022/08/17 13:21:11;;;;;;;4.68;4.00;;;;;;;;;;5121686;28;20290;-62
2022/08/17 13:23:39;;;;;;;5.20;4.45;;;;;;;;;;5110210;28;20223;-62
2022/08/17 13:26:28;;;;;;;5.97;3.83;;;;;;;;;;5121449;27;20212;-62
2022/08/17 13:28:56;;;;;;;5.00;4.47;;;;;;;;;;5114037;28;20236;-62
2022/08/17 13:31:34;;;;;;;5.63;3.80;;;;;;;;;;5121133;27;20621;-62
2022/08/17 13:34:34;;;;;;;4.47;4.00;;;;;;;;;;5115269;28;20699;-62
2022/08/17 13:37:28;;;;;;;4.53;4.03;;;;;;;;;;5114133;28;20205;-62
2022/08/17 13:39:57;;;;;;;10.80;4.93;;;;;;;;;;5121346;28;20666;-62
2022/08/17 13:42:30;;;;;;;10.30;5.17;;;;;;;;;;5113967;28;20201;-62
2022/08/17 13:44:58;;;;;;;8.07;4.93;;;;;;;;;;5111602;28;20295;-62
2022/08/17 13:47:26;;;;;;;8.93;5.23;;;;;;;;;;5105538;28;20237;-62
2022/08/17 13:49:56;;;;;;;9.70;4.90;;;;;;;;;;5118654;28;20609;-62
2022/08/17 13:52:33;;;;;;;9.53;5.00;;;;;;;;;;5118355;28;20707;-62
2022/08/17 13:55:01;;;;;;;7.50;4.60;;;;;;;;;;5109422;28;20588;-63
2022/08/17 13:57:30;;;;;;;10.03;3.77;;;;;;;;;;5118707;28;20228;-64
2022/08/17 14:00:07;;;;;;;4.27;3.00;;;;;;;;;;5111765;28;20242;-63
2022/08/17 14:02:35;;;;;;;7.07;3.57;;;;;;;;;;5115468;28;20301;-65
2022/08/17 14:05:05;;;;;;;5.70;3.63;;;;;;;;;;5113165;28;20730;-65
2022/08/17 14:07:34;;;;;;;7.90;3.33;;;;;;;;;;5109539;28;20211;-66
2022/08/17 14:10:04;;;;;;;8.50;3.73;;;;;;;;;;5120510;28;20574;-66
2022/08/17 14:12:34;;;;;;;5.27;3.10;;;;;;;;;;5108546;28;20648;-67
2022/08/17 14:15:02;;;;;;;6.23;3.27;;;;;;;;;;5108121;27;20262;-69
2022/08/17 14:17:30;;;;;;;8.60;4.20;;;;;;;;;;5109967;28;20235;-68
2022/08/17 14:20:08;;;;;;;6.90;3.93;;;;;;;;;;5112865;28;20205;-68
2022/08/17 14:22:37;;;;;;;13.80;4.13;;;;;;;;;;5102144;28;20670;-68
2022/08/17 14:25:06;;;;;;;5.63;3.40;;;;;;;;;;5119181;28;20720;-67
2022/08/17 14:27:37;;;;;;;12.63;3.97;;;;;;;;;;5109033;28;20237;-67
2022/08/17 14:30:21;;;;;;;6.67;3.33;;;;;;;;;;5102811;28;20229;-68
2022/08/17 14:32:50;;;;;;;7.00;3.80;;;;;;;;;;5112604;28;20679;-66
2022/08/17 14:35:22;;;;;;;8.90;4.30;;;;;;;;;;5107751;28;20211;-64
2022/08/17 14:37:50;;;;;;;5.57;3.40;;;;;;;;;;5113356;28;20241;-68
2022/08/17 14:40:21;;;;;;;7.27;4.17;;;;;;;;;;5118439;28;20205;-67
2022/08/17 14:42:49;;;;;;;6.23;3.17;;;;;;;;;;5108005;28;20228;-67
2022/08/17 14:45:17;;;;;;;8.20;3.40;;;;;;;;;;5111095;28;20665;-66
2022/08/17 14:48:00;;;;;;;4.73;3.13;;;;;;;;;;5108111;28;20202;-67
2022/08/17 14:50:30;;;;;;;6.37;2.97;;;;;;;;;;5117829;28;20267;-67
2022/08/17 14:52:58;;;;;;;5.27;3.10;;;;;;;;;;5106169;28;20785;-68
2022/08/17 14:55:28;;;;;;;9.07;3.23;;;;;;;;;;5119903;28;20211;-68
2022/08/17 14:57:56;;;;;;;3.27;2.70;;;;;;;;;;5120091;28;20251;-67
2022/08/17 15:00:24;;;;;;;4.73;2.63;;;;;;;;;;5117883;28;20216;-67
2022/08/17 15:02:53;;;;;;;3.60;2.90;;;;;;;;;;5119629;27;20202;-67
2022/08/17 15:05:23;;;;;;;9.53;3.60;;;;;;;;;;5119514;28;20240;-65
2022/08/17 15:07:52;;;;;;;5.63;3.20;;;;;;;;;;5119625;28;20634;-68
2022/08/17 15:10:21;;;;;;;4.43;3.00;;;;;;;;;;5119270;28;20205;-64
2022/08/17 15:12:52;;;;;;;3.73;2.83;;;;;;;;;;5117367;28;20200;-65
2022/08/17 15:15:20;;;;;;;4.37;2.70;;;;;;;;;;5117795;28;20664;-64
2022/08/17 15:17:50;;;;;;;5.00;2.90;;;;;;;;;;5119041;28;20254;-65
2022/08/17 15:20:19;;;;;;;5.37;2.73;;;;;;;;;;5119119;28;20292;-66
2022/08/17 15:22:49;;;;;;;5.63;3.00;;;;;;;;;;5119334;28;20213;-66
2022/08/17 15:25:20;;;;;;;3.83;2.63;;;;;;;;;;5118437;28;20207;-66
2022/08/17 15:27:48;;;;;;;5.50;3.20;;;;;;;;;;5118651;28;20550;-68
2022/08/17 15:30:17;;;;;;;4.70;2.73;;;;;;;;;;5118657;28;20612;-67
2022/08/17 15:32:45;;;;;;;5.17;2.83;;;;;;;;;;5119922;27;20202;-67
2022/08/17 15:35:23;;;;;;;5.20;2.60;;;;;;;;;;5126054;27;20210;-66
2022/08/17 15:37:56;;;;;;;3.90;3.23;;;;;;;;;;5121820;27;20282;-67
2022/08/17 15:40:28;;;;;;;5.20;3.70;;;;;;;;;;5127891;27;20207;-66
2022/08/17 15:43:04;;;;;;;4.17;3.37;;;;;;;;;;5127038;27;20198;-65
2022/08/17 15:45:34;;;;;;;6.37;3.63;;;;;;;;;;5120710;27;20199;-65